Time;durP1;ratioP1;P1;durP2;ratioP2;P2;SDS_P1;SDS_P2;PMS_P1;PMS_P2;Temp;Humidity;BMP_temperature;BMP_pressure;BME280_temperature;BME280_humidity;BME280_pressure;Samples;Min_cycle;Max_cycle;Signal;HPM_P1;HPM_P2
2023/10/06 00:02:58;;;;;;;26.30;11.52;;;;;;;;;;4960422;28;20588;-71
2023/10/06 00:05:25;;;;;;;22.63;10.27;;;;;;;;;;4933137;29;20035;-71
2023/10/06 00:07:51;;;;;;;23.02;11.05;;;;;;;;;;4943822;28;20039;-72
2023/10/06 00:10:21;;;;;;;23.25;10.48;;;;;;;;;;4943947;28;20027;-71
2023/10/06 00:12:54;;;;;;;25.92;10.15;;;;;;;;;;4942675;28;20122;-71
2023/10/06 00:15:27;;;;;;;20.92;10.23;;;;;;;;;;4927590;29;20078;-71
2023/10/06 00:17:56;;;;;;;28.00;10.82;;;;;;;;;;4944721;28;20860;-71
2023/10/06 00:20:26;;;;;;;26.48;11.73;;;;;;;;;;4927609;29;20023;-70
2023/10/06 00:22:55;;;;;;;28.10;11.30;;;;;;;;;;4926895;29;20467;-70
2023/10/06 00:25:24;;;;;;;22.08;10.93;;;;;;;;;;4941804;28;20043;-72
2023/10/06 00:27:50;;;;;;;23.67;10.95;;;;;;;;;;4927174;29;20130;-70
2023/10/06 00:30:20;;;;;;;23.75;11.38;;;;;;;;;;4935152;29;20642;-70
2023/10/06 00:32:48;;;;;;;24.35;10.63;;;;;;;;;;4922798;28;20528;-71
2023/10/06 00:35:22;;;;;;;29.10;11.60;;;;;;;;;;4923267;29;20043;-71
2023/10/06 00:37:50;;;;;;;27.77;12.13;;;;;;;;;;4921984;29;20182;-71
2023/10/06 00:40:24;;;;;;;21.42;11.88;;;;;;;;;;4925862;29;20142;-71
2023/10/06 00:42:56;;;;;;;23.73;11.35;;;;;;;;;;4939707;28;20126;-70
2023/10/06 00:45:26;;;;;;;27.85;11.80;;;;;;;;;;4942605;28;20023;-70
2023/10/06 00:47:53;;;;;;;24.10;10.88;;;;;;;;;;4929825;29;20098;-70
2023/10/06 00:50:24;;;;;;;27.70;11.35;;;;;;;;;;4927823;29;20027;-72
2023/10/06 00:52:50;;;;;;;;;;;;;;;;;;4946219;28;20122;-70
2023/10/06 00:55:17;;;;;;;25.75;11.25;;;;;;;;;;4943644;28;19914;-70
2023/10/06 00:57:53;;;;;;;25.52;11.88;;;;;;;;;;4937974;28;20051;-70
2023/10/06 01:00:20;;;;;;;27.10;13.07;;;;;;;;;;4940329;28;20107;-72
2023/10/06 01:02:47;;;;;;;25.85;12.35;;;;;;;;;;4935569;28;20031;-72
2023/10/06 01:05:16;;;;;;;27.30;11.68;;;;;;;;;;4941319;29;20034;-71
2023/10/06 01:07:49;;;;;;;23.83;12.73;;;;;;;;;;4945282;28;20035;-73
2023/10/06 01:10:21;;;;;;;26.73;12.63;;;;;;;;;;4926345;29;20050;-72
2023/10/06 01:12:52;;;;;;;27.35;12.20;;;;;;;;;;4939773;28;20584;-72
2023/10/06 01:15:19;;;;;;;24.73;11.57;;;;;;;;;;4922322;29;20366;-73
2023/10/06 01:17:47;;;;;;;24.40;12.32;;;;;;;;;;4926053;29;20024;-71
2023/10/06 01:23:01;;;;;;;26.40;11.82;;;;;;;;;;4943696;28;20034;-71
2023/10/06 01:25:33;;;;;;;24.00;11.38;;;;;;;;;;4938880;28;20031;-71
2023/10/06 01:28:03;;;;;;;23.02;11.18;;;;;;;;;;4944006;28;20400;-72
2023/10/06 01:30:29;;;;;;;26.80;13.10;;;;;;;;;;4942689;28;20416;-70
2023/10/06 01:32:58;;;;;;;29.20;11.45;;;;;;;;;;4937173;28;20072;-73
2023/10/06 01:35:26;;;;;;;25.00;11.27;;;;;;;;;;4940947;29;20070;-72
2023/10/06 01:38:05;;;;;;;27.00;12.57;;;;;;;;;;4941148;29;20041;-72
2023/10/06 01:42:57;;;;;;;27.02;12.52;;;;;;;;;;4936946;28;20122;-71
2023/10/06 01:45:24;;;;;;;27.55;11.27;;;;;;;;;;4935575;28;20042;-72
2023/10/06 01:48:01;;;;;;;22.77;11.85;;;;;;;;;;4921649;29;20036;-71
2023/10/06 01:50:27;;;;;;;32.05;11.65;;;;;;;;;;4936830;28;20035;-71
2023/10/06 01:52:56;;;;;;;27.83;11.50;;;;;;;;;;4923914;29;20031;-71
2023/10/06 01:55:24;;;;;;;27.00;11.63;;;;;;;;;;4943609;28;20035;-71
2023/10/06 01:57:54;;;;;;;26.45;11.80;;;;;;;;;;4942090;28;20031;-71
2023/10/06 02:00:26;;;;;;;24.08;12.23;;;;;;;;;;4929139;28;20034;-71
2023/10/06 02:02:53;;;;;;;33.88;13.38;;;;;;;;;;4922636;29;20524;-71
2023/10/06 02:05:20;;;;;;;29.88;11.65;;;;;;;;;;4924211;28;20031;-72
2023/10/06 02:07:46;;;;;;;26.35;11.02;;;;;;;;;;4928612;29;20031;-72
2023/10/06 02:10:15;;;;;;;28.60;11.82;;;;;;;;;;4945951;28;20023;-72
2023/10/06 02:12:41;;;;;;;29.85;11.45;;;;;;;;;;4947990;28;20444;-71
2023/10/06 02:15:11;;;;;;;28.48;13.05;;;;;;;;;;4944760;28;20031;-70
2023/10/06 02:17:38;;;;;;;25.77;11.82;;;;;;;;;;4940880;28;20023;-70
2023/10/06 02:20:29;;;;;;;23.65;10.52;;;;;;;;;;4944666;28;20082;-71
2023/10/06 02:22:58;;;;;;;24.80;11.63;;;;;;;;;;4925650;29;20035;-71
2023/10/06 02:25:25;;;;;;;23.67;10.50;;;;;;;;;;4944105;29;20035;-70
2023/10/06 02:27:54;;;;;;;27.13;11.32;;;;;;;;;;4941365;28;20050;-72
2023/10/06 02:30:33;;;;;;;28.58;11.88;;;;;;;;;;4941032;28;20027;-71
2023/10/06 02:33:00;;;;;;;26.50;12.65;;;;;;;;;;4947930;28;20059;-72
2023/10/06 02:35:26;;;;;;;25.92;12.00;;;;;;;;;;4942429;28;20035;-71
2023/10/06 02:37:57;;;;;;;29.52;12.18;;;;;;;;;;4938620;28;20039;-71
2023/10/06 02:40:31;;;;;;;25.73;10.88;;;;;;;;;;4944004;29;20469;-71
2023/10/06 02:43:00;;;;;;;27.27;12.50;;;;;;;;;;4947156;28;20126;-71
2023/10/06 02:45:31;;;;;;;25.42;12.60;;;;;;;;;;4927850;28;20562;-71
2023/10/06 02:47:58;;;;;;;28.75;12.63;;;;;;;;;;4925349;29;20036;-70
2023/10/06 02:50:24;;;;;;;28.13;12.50;;;;;;;;;;4942559;28;20088;-73
2023/10/06 02:52:53;;;;;;;25.90;12.43;;;;;;;;;;4923254;29;20114;-71
2023/10/06 02:55:20;;;;;;;30.67;13.73;;;;;;;;;;4944916;28;20047;-72
2023/10/06 02:57:55;;;;;;;34.25;14.02;;;;;;;;;;4921566;29;20142;-73
2023/10/06 03:03:02;;;;;;;26.38;12.02;;;;;;;;;;4930538;29;20045;-71
2023/10/06 03:05:33;;;;;;;25.33;11.63;;;;;;;;;;4941129;28;20039;-71
2023/10/06 03:08:09;;;;;;;28.17;12.00;;;;;;;;;;4926450;29;20035;-71
2023/10/06 03:10:43;;;;;;;25.38;12.05;;;;;;;;;;4928015;29;20031;-72
2023/10/06 03:13:13;;;;;;;30.90;13.82;;;;;;;;;;4951531;28;20035;-71
2023/10/06 03:15:46;;;;;;;26.27;13.27;;;;;;;;;;4925694;29;20035;-71
2023/10/06 03:18:15;;;;;;;30.90;13.73;;;;;;;;;;4925995;28;20493;-70
2023/10/06 03:20:48;;;;;;;25.25;12.57;;;;;;;;;;4941732;28;20015;-70
2023/10/06 03:23:29;;;;;;;24.15;13.05;;;;;;;;;;4926478;28;20027;-70
2023/10/06 03:25:56;;;;;;;29.10;12.68;;;;;;;;;;4948450;28;20020;-70
2023/10/06 03:28:36;;;;;;;30.80;12.60;;;;;;;;;;4929881;29;20027;-71
2023/10/06 03:31:21;;;;;;;23.58;12.60;;;;;;;;;;4929517;29;20055;-70
2023/10/06 03:33:55;;;;;;;35.63;13.77;;;;;;;;;;4931258;29;20624;-71
2023/10/06 03:36:47;;;;;;;28.35;12.77;;;;;;;;;;4928818;29;20438;-70
2023/10/06 03:39:10;;;;;;;26.35;12.90;;;;;;;;;;4928884;29;20041;-74
2023/10/06 03:41:37;;;;;;;27.38;13.95;;;;;;;;;;4929456;29;20039;-71
2023/10/06 03:44:04;;;;;;;26.70;13.20;;;;;;;;;;4942693;28;20050;-72
2023/10/06 03:46:38;;;;;;;27.33;13.80;;;;;;;;;;4929299;29;20042;-71
2023/10/06 03:49:13;;;;;;;28.92;13.77;;;;;;;;;;4928715;29;20392;-70
2023/10/06 03:51:40;;;;;;;32.35;15.00;;;;;;;;;;4929389;29;20126;-70
2023/10/06 03:54:07;;;;;;;29.52;15.57;;;;;;;;;;4943138;29;20039;-71
2023/10/06 03:56:34;;;;;;;28.27;15.18;;;;;;;;;;4921105;29;20071;-70
2023/10/06 03:59:00;;;;;;;33.15;15.45;;;;;;;;;;4944808;28;20031;-71
2023/10/06 04:01:27;;;;;;;30.73;14.88;;;;;;;;;;4928796;29;20027;-71
2023/10/06 04:03:59;;;;;;;27.55;15.30;;;;;;;;;;4944226;28;20515;-71
2023/10/06 04:06:26;;;;;;;29.25;15.32;;;;;;;;;;4942486;28;20020;-72
2023/10/06 04:08:53;;;;;;;32.72;15.15;;;;;;;;;;4942073;29;20122;-71
2023/10/06 04:11:22;;;;;;;31.75;15.15;;;;;;;;;;4927370;29;20045;-71
2023/10/06 04:13:48;;;;;;;32.80;15.38;;;;;;;;;;4942843;28;20035;-72
2023/10/06 04:16:15;;;;;;;44.63;16.15;;;;;;;;;;4945207;28;20031;-71
2023/10/06 04:18:41;;;;;;;33.90;15.48;;;;;;;;;;4942153;28;20110;-70
2023/10/06 04:21:14;;;;;;;28.05;15.02;;;;;;;;;;4944134;28;20068;-71
2023/10/06 04:23:41;;;;;;;36.28;15.05;;;;;;;;;;4941800;28;20028;-70
2023/10/06 04:26:11;;;;;;;31.65;14.63;;;;;;;;;;4942817;29;20031;-70
2023/10/06 04:28:38;;;;;;;29.23;15.05;;;;;;;;;;4940791;28;20114;-72
2023/10/06 04:31:11;;;;;;;29.35;14.13;;;;;;;;;;4946243;28;20119;-72
2023/10/06 04:33:37;;;;;;;34.17;15.02;;;;;;;;;;4942197;28;20051;-72
2023/10/06 04:36:08;;;;;;;31.90;15.25;;;;;;;;;;4945147;28;20450;-72
2023/10/06 04:38:37;;;;;;;27.88;14.43;;;;;;;;;;4926114;29;20035;-70
2023/10/06 04:41:06;;;;;;;32.42;14.98;;;;;;;;;;4942758;29;20047;-71
2023/10/06 04:43:33;;;;;;;32.35;13.68;;;;;;;;;;4939520;28;20068;-70
2023/10/06 04:45:59;;;;;;;32.88;15.02;;;;;;;;;;4942157;28;20189;-71
2023/10/06 04:48:25;;;;;;;29.05;14.30;;;;;;;;;;4920753;29;20034;-71
2023/10/06 04:50:51;;;;;;;27.90;14.00;;;;;;;;;;4923752;29;20117;-71
2023/10/06 04:53:17;;;;;;;25.42;13.02;;;;;;;;;;4940195;28;20467;-70
2023/10/06 04:55:44;;;;;;;27.58;13.10;;;;;;;;;;4923206;28;20039;-71
2023/10/06 04:58:14;;;;;;;25.13;13.20;;;;;;;;;;4940540;28;20150;-72
2023/10/06 05:00:49;;;;;;;29.55;12.38;;;;;;;;;;4941572;29;20717;-71
2023/10/06 05:03:15;;;;;;;21.63;12.82;;;;;;;;;;4927038;29;20119;-72
2023/10/06 05:05:42;;;;;;;24.05;13.07;;;;;;;;;;4943150;28;20042;-73
2023/10/06 05:08:09;;;;;;;26.65;12.95;;;;;;;;;;4912135;29;20043;-71
2023/10/06 05:10:37;;;;;;;32.17;12.90;;;;;;;;;;4944885;28;20058;-70
2023/10/06 05:13:06;;;;;;;24.13;11.35;;;;;;;;;;4951196;28;20034;-72
2023/10/06 05:15:34;;;;;;;28.25;11.48;;;;;;;;;;4952018;28;20042;-70
2023/10/06 05:18:02;;;;;;;33.88;13.57;;;;;;;;;;4932285;29;20034;-70
2023/10/06 05:20:35;;;;;;;24.58;11.55;;;;;;;;;;4945792;28;20023;-74
2023/10/06 05:23:14;;;;;;;25.05;10.88;;;;;;;;;;4945857;28;20075;-71
2023/10/06 05:25:41;;;;;;;24.10;10.95;;;;;;;;;;4944575;28;20161;-72
2023/10/06 05:28:10;;;;;;;23.40;11.35;;;;;;;;;;4944412;28;20038;-72
2023/10/06 05:30:37;;;;;;;30.63;10.95;;;;;;;;;;4946280;28;20137;-70
2023/10/06 05:33:04;;;;;;;28.27;11.38;;;;;;;;;;4947447;28;20046;-70
2023/10/06 05:35:38;;;;;;;26.58;12.13;;;;;;;;;;4945882;28;20043;-70
2023/10/06 05:38:13;;;;;;;25.88;10.38;;;;;;;;;;4945250;28;20046;-70
2023/10/06 05:40:40;;;;;;;31.10;10.95;;;;;;;;;;4943275;28;20028;-71
2023/10/06 05:43:11;;;;;;;25.48;11.07;;;;;;;;;;4946093;29;20039;-72
2023/10/06 05:45:39;;;;;;;;;;;;;;;;;;4948162;28;20026;-69
2023/10/06 05:48:11;;;;;;;29.83;11.48;;;;;;;;;;4944326;28;19914;-71
2023/10/06 05:50:38;;;;;;;27.52;10.43;;;;;;;;;;4944869;28;20038;-71
2023/10/06 05:53:07;;;;;;;28.05;10.38;;;;;;;;;;4944751;29;20035;-71
2023/10/06 05:55:35;;;;;;;36.13;11.35;;;;;;;;;;4949917;29;20039;-72
2023/10/06 05:58:06;;;;;;;23.38;10.80;;;;;;;;;;4948487;28;20023;-74
2023/10/06 06:00:33;;;;;;;21.15;10.18;;;;;;;;;;4945459;29;20035;-70
2023/10/06 06:03:10;;;;;;;26.77;11.98;;;;;;;;;;4947460;28;20039;-70
2023/10/06 06:05:38;;;;;;;26.63;11.10;;;;;;;;;;4948312;29;20035;-72
2023/10/06 06:08:10;;;;;;;26.80;10.25;;;;;;;;;;4951554;28;20035;-73
2023/10/06 06:10:36;;;;;;;26.45;11.65;;;;;;;;;;4944123;29;20047;-72
2023/10/06 06:13:04;;;;;;;26.73;11.98;;;;;;;;;;4947544;29;20094;-72
2023/10/06 06:15:31;;;;;;;28.02;11.70;;;;;;;;;;4951187;28;20035;-73
2023/10/06 06:18:01;;;;;;;26.88;11.45;;;;;;;;;;4944257;28;20066;-71
2023/10/06 06:20:30;;;;;;;25.17;11.10;;;;;;;;;;4945150;28;20086;-71
2023/10/06 06:22:59;;;;;;;26.35;10.93;;;;;;;;;;4942244;28;20039;-70
2023/10/06 06:25:26;;;;;;;26.58;11.00;;;;;;;;;;4943949;29;20058;-71
2023/10/06 06:27:54;;;;;;;29.98;10.70;;;;;;;;;;4945429;28;20442;-71
2023/10/06 06:30:21;;;;;;;34.22;11.30;;;;;;;;;;4945719;28;20039;-70
2023/10/06 06:32:50;;;;;;;30.05;11.23;;;;;;;;;;4943446;29;20512;-72
2023/10/06 06:35:19;;;;;;;24.73;11.35;;;;;;;;;;4944619;29;20374;-70
2023/10/06 06:38:01;;;;;;;25.15;10.63;;;;;;;;;;4941403;28;20032;-70
2023/10/06 06:40:30;;;;;;;23.75;11.48;;;;;;;;;;4941897;28;21026;-69
2023/10/06 06:42:56;;;;;;;26.75;12.05;;;;;;;;;;4948511;29;20114;-72
2023/10/06 06:45:26;;;;;;;29.02;11.27;;;;;;;;;;4940804;29;20165;-71
2023/10/06 06:47:52;;;;;;;22.52;10.50;;;;;;;;;;4946125;28;20023;-70
2023/10/06 06:50:19;;;;;;;22.17;12.48;;;;;;;;;;4947856;28;20090;-72
2023/10/06 06:52:46;;;;;;;26.55;11.25;;;;;;;;;;4950145;28;20090;-72
2023/10/06 06:55:12;;;;;;;23.20;11.68;;;;;;;;;;4933237;29;20041;-71
2023/10/06 06:57:49;;;;;;;28.38;11.23;;;;;;;;;;4947288;29;20140;-70
2023/10/06 07:00:16;;;;;;;29.92;10.73;;;;;;;;;;4947610;28;20488;-71
2023/10/06 07:02:43;;;;;;;25.40;11.55;;;;;;;;;;4947139;28;20062;-71
2023/10/06 07:05:10;;;;;;;26.00;10.85;;;;;;;;;;4944648;29;20130;-71
2023/10/06 07:07:39;;;;;;;26.48;11.30;;;;;;;;;;4933262;29;20075;-70
2023/10/06 07:10:06;;;;;;;34.65;12.27;;;;;;;;;;4940527;28;20082;-71
2023/10/06 07:12:32;;;;;;;24.45;10.50;;;;;;;;;;4952344;28;20062;-72
2023/10/06 07:14:58;;;;;;;20.48;10.60;;;;;;;;;;4930325;28;20424;-72
2023/10/06 07:17:25;;;;;;;20.52;10.73;;;;;;;;;;4948830;29;20027;-71
2023/10/06 07:19:51;;;;;;;27.85;11.82;;;;;;;;;;4949258;29;20058;-72
2023/10/06 07:22:17;;;;;;;24.48;10.70;;;;;;;;;;4949333;28;20043;-69
2023/10/06 07:24:44;;;;;;;22.20;10.55;;;;;;;;;;4936681;29;20055;-70
2023/10/06 07:27:10;;;;;;;26.35;11.25;;;;;;;;;;4934143;28;20027;-72
2023/10/06 07:29:36;;;;;;;24.33;10.40;;;;;;;;;;4953587;28;20031;-70
2023/10/06 07:32:03;;;;;;;29.00;9.50;;;;;;;;;;4950213;28;20122;-72
2023/10/06 07:34:29;;;;;;;28.38;10.63;;;;;;;;;;4934636;29;20440;-70
2023/10/06 07:36:56;;;;;;;29.30;11.75;;;;;;;;;;4947478;28;20031;-70
2023/10/06 07:39:22;;;;;;;23.48;9.63;;;;;;;;;;4948144;28;20611;-71
2023/10/06 07:41:48;;;;;;;21.80;10.10;;;;;;;;;;4951269;28;20137;-72
2023/10/06 07:44:14;;;;;;;27.13;10.38;;;;;;;;;;4938995;29;20055;-71
2023/10/06 07:46:41;;;;;;;18.17;9.30;;;;;;;;;;4949118;28;20039;-71
2023/10/06 07:49:07;;;;;;;22.00;9.02;;;;;;;;;;4950429;29;20027;-72
2023/10/06 07:51:34;;;;;;;20.55;8.90;;;;;;;;;;4945172;28;20086;-71
2023/10/06 07:54:00;;;;;;;21.30;9.48;;;;;;;;;;4944886;28;20039;-71
2023/10/06 07:56:26;;;;;;;26.92;9.52;;;;;;;;;;4944711;28;20039;-72
2023/10/06 07:58:53;;;;;;;20.58;9.35;;;;;;;;;;4946229;28;20094;-71
2023/10/06 08:01:19;;;;;;;22.52;9.30;;;;;;;;;;4947930;29;20039;-71
2023/10/06 08:03:46;;;;;;;20.95;9.07;;;;;;;;;;4946468;29;20039;-71
2023/10/06 08:06:13;;;;;;;17.98;7.88;;;;;;;;;;4926564;29;20035;-71
2023/10/06 08:08:40;;;;;;;24.08;7.80;;;;;;;;;;4950173;28;20082;-72
2023/10/06 08:11:06;;;;;;;31.08;10.43;;;;;;;;;;4945544;29;20067;-72
2023/10/06 08:13:36;;;;;;;23.38;8.60;;;;;;;;;;4944741;28;20141;-70
2023/10/06 08:16:03;;;;;;;20.08;7.93;;;;;;;;;;4944171;28;20031;-72
2023/10/06 08:18:29;;;;;;;32.05;7.63;;;;;;;;;;4948922;28;20137;-71
2023/10/06 08:21:02;;;;;;;21.85;8.05;;;;;;;;;;4950537;28;20027;-74
2023/10/06 08:23:29;;;;;;;16.90;8.07;;;;;;;;;;4952596;28;20265;-77
2023/10/06 08:26:00;;;;;;;20.33;8.60;;;;;;;;;;4955511;28;20035;-71
2023/10/06 08:28:31;;;;;;;14.68;7.43;;;;;;;;;;4933771;29;20039;-70
2023/10/06 08:30:58;;;;;;;22.00;8.05;;;;;;;;;;4944780;28;20078;-71
2023/10/06 08:33:27;;;;;;;15.80;7.45;;;;;;;;;;4944506;29;20071;-70
2023/10/06 08:36:00;;;;;;;26.63;8.57;;;;;;;;;;4937433;28;20070;-71
2023/10/06 08:38:28;;;;;;;24.42;8.40;;;;;;;;;;4943454;28;20024;-72
2023/10/06 08:40:58;;;;;;;25.02;8.20;;;;;;;;;;4942849;29;20489;-71
2023/10/06 08:43:27;;;;;;;19.17;8.17;;;;;;;;;;4946060;29;20023;-72
2023/10/06 08:45:55;;;;;;;21.10;7.72;;;;;;;;;;4940424;28;20124;-70
2023/10/06 08:48:25;;;;;;;24.70;8.20;;;;;;;;;;4944981;29;20111;-71
2023/10/06 08:50:53;;;;;;;19.63;7.40;;;;;;;;;;4939965;28;20115;-71
2023/10/06 08:53:23;;;;;;;20.77;7.45;;;;;;;;;;4927540;29;20159;-70
2023/10/06 08:55:49;;;;;;;22.67;8.82;;;;;;;;;;4930887;28;20039;-71
2023/10/06 08:58:17;;;;;;;19.80;6.90;;;;;;;;;;4941821;28;20039;-71
2023/10/06 09:00:44;;;;;;;22.10;7.15;;;;;;;;;;4945973;28;20042;-71
2023/10/06 09:03:17;;;;;;;18.58;7.45;;;;;;;;;;4923348;29;20031;-71
2023/10/06 09:05:43;;;;;;;25.13;6.72;;;;;;;;;;4944619;28;20427;-71
2023/10/06 09:08:11;;;;;;;23.88;7.95;;;;;;;;;;4938500;28;20043;-71
2023/10/06 09:10:38;;;;;;;19.67;7.35;;;;;;;;;;4943587;29;20456;-70
2023/10/06 09:13:08;;;;;;;22.55;7.63;;;;;;;;;;4928971;28;20065;-72
2023/10/06 09:15:36;;;;;;;17.83;6.97;;;;;;;;;;4945118;28;20039;-71
2023/10/06 09:18:18;;;;;;;15.90;7.25;;;;;;;;;;4940504;28;20035;-71
2023/10/06 09:20:47;;;;;;;20.90;7.78;;;;;;;;;;4941677;29;20027;-72
2023/10/06 09:23:32;;;;;;;23.73;8.43;;;;;;;;;;4945026;28;20646;-73
2023/10/06 09:26:00;;;;;;;18.58;7.18;;;;;;;;;;4945613;28;20039;-71
2023/10/06 09:28:26;;;;;;;18.80;7.28;;;;;;;;;;4940830;29;20186;-72
2023/10/06 09:30:57;;;;;;;20.55;7.15;;;;;;;;;;4942350;29;20035;-72
2023/10/06 09:33:41;;;;;;;18.00;6.90;;;;;;;;;;4943177;29;21340;-71
2023/10/06 09:36:09;;;;;;;16.08;7.07;;;;;;;;;;4929455;28;20039;-72
2023/10/06 09:38:36;;;;;;;17.10;7.93;;;;;;;;;;4943008;28;20050;-70
2023/10/06 09:41:05;;;;;;;21.05;7.05;;;;;;;;;;4928321;29;20049;-71
2023/10/06 09:43:35;;;;;;;21.75;6.72;;;;;;;;;;4945696;29;20273;-71
2023/10/06 09:46:06;;;;;;;19.27;6.10;;;;;;;;;;4942546;28;20662;-72
2023/10/06 09:48:35;;;;;;;30.77;6.60;;;;;;;;;;4926929;29;20126;-70
2023/10/06 09:51:23;;;;;;;19.63;6.55;;;;;;;;;;4943080;29;20035;-71
2023/10/06 09:53:49;;;;;;;17.38;6.40;;;;;;;;;;4937851;28;21359;-72
2023/10/06 09:56:17;;;;;;;16.42;6.28;;;;;;;;;;4943178;28;20032;-70
2023/10/06 09:58:54;;;;;;;21.05;6.60;;;;;;;;;;4942998;28;20121;-69
2023/10/06 10:01:25;;;;;;;17.55;6.00;;;;;;;;;;4927319;28;20031;-71
2023/10/06 10:03:56;;;;;;;20.95;6.53;;;;;;;;;;4943461;28;20947;-73
2023/10/06 10:06:22;;;;;;;;;;;;;;;;;;4944554;28;20123;-70
2023/10/06 10:08:51;;;;;;;18.33;6.50;;;;;;;;;;4943149;28;20415;-70
2023/10/06 10:11:29;;;;;;;24.85;6.72;;;;;;;;;;4941675;29;21459;-70
2023/10/06 10:14:10;;;;;;;15.77;5.88;;;;;;;;;;4925429;29;20468;-71
2023/10/06 10:16:36;;;;;;;;;;;;;;;;;;4924700;29;20118;-71
2023/10/06 10:19:07;;;;;;;27.25;6.88;;;;;;;;;;4949281;29;20070;-70
2023/10/06 10:21:34;;;;;;;21.73;7.38;;;;;;;;;;4942228;29;20039;-70
2023/10/06 10:24:05;;;;;;;17.73;6.45;;;;;;;;;;4942727;28;20031;-69
2023/10/06 10:26:34;;;;;;;20.70;5.45;;;;;;;;;;4946772;28;20045;-70
2023/10/06 10:29:12;;;;;;;18.08;5.55;;;;;;;;;;4948375;28;20030;-72
2023/10/06 10:32:01;;;;;;;16.15;5.15;;;;;;;;;;4946195;28;20032;-70
2023/10/06 10:34:33;;;;;;;18.27;6.25;;;;;;;;;;4947542;28;20070;-70
2023/10/06 10:37:07;;;;;;;15.07;5.30;;;;;;;;;;4947468;29;20109;-70
2023/10/06 10:46:47;;;;;;;17.20;4.80;;;;;;;;;;4795766;23;20086;-70
2023/10/06 10:49:13;;;;;;;19.80;5.80;;;;;;;;;;4963136;28;20030;-71
2023/10/06 10:51:58;;;;;;;17.17;5.50;;;;;;;;;;4962234;28;20062;-71
2023/10/06 10:54:27;;;;;;;14.35;5.30;;;;;;;;;;4959256;28;20023;-71
2023/10/06 10:57:01;;;;;;;17.23;5.20;;;;;;;;;;4966693;28;20030;-71
2023/10/06 10:59:47;;;;;;;17.92;5.53;;;;;;;;;;4965327;28;20031;-70
2023/10/06 11:02:15;;;;;;;20.15;6.00;;;;;;;;;;4966368;28;20033;-71
2023/10/06 11:04:43;;;;;;;22.33;5.70;;;;;;;;;;4966263;28;20058;-71
2023/10/06 11:07:11;;;;;;;14.82;4.95;;;;;;;;;;4964657;28;20039;-71
2023/10/06 11:09:40;;;;;;;21.23;5.43;;;;;;;;;;4964490;28;20038;-69
2023/10/06 11:12:19;;;;;;;18.40;5.55;;;;;;;;;;4962714;28;20023;-71
2023/10/06 11:14:46;;;;;;;20.35;5.50;;;;;;;;;;4963130;28;20241;-70
2023/10/06 11:17:12;;;;;;;17.65;4.93;;;;;;;;;;4963607;28;20522;-71
2023/10/06 11:19:40;;;;;;;16.83;4.90;;;;;;;;;;4961452;28;20496;-71
2023/10/06 11:22:10;;;;;;;15.88;5.10;;;;;;;;;;4962025;28;20042;-71
2023/10/06 11:24:36;;;;;;;16.50;5.35;;;;;;;;;;4968915;28;20040;-72
2023/10/06 11:27:16;;;;;;;19.48;5.13;;;;;;;;;;4963069;28;20054;-71
2023/10/06 11:29:43;;;;;;;25.65;5.85;;;;;;;;;;4965753;28;20035;-71
2023/10/06 11:32:10;;;;;;;22.10;5.68;;;;;;;;;;4966520;28;20130;-70
2023/10/06 11:34:37;;;;;;;19.95;5.40;;;;;;;;;;4963969;28;20050;-71
2023/10/06 11:37:05;;;;;;;15.05;5.32;;;;;;;;;;4944234;28;20108;-70
2023/10/06 11:39:31;;;;;;;16.60;4.88;;;;;;;;;;4966612;28;20050;-70
2023/10/06 11:42:16;;;;;;;16.73;4.30;;;;;;;;;;4966900;28;20157;-71
2023/10/06 11:44:42;;;;;;;19.10;5.07;;;;;;;;;;4955039;28;20129;-70
2023/10/06 11:47:08;;;;;;;14.50;5.40;;;;;;;;;;4957560;28;20046;-69
2023/10/06 11:49:52;;;;;;;18.23;5.35;;;;;;;;;;4960981;28;20038;-70
2023/10/06 11:52:18;;;;;;;15.60;4.38;;;;;;;;;;4961470;28;20375;-72
2023/10/06 11:54:46;;;;;;;18.67;5.38;;;;;;;;;;4967032;28;20045;-70
2023/10/06 11:57:15;;;;;;;19.02;5.20;;;;;;;;;;4938225;28;20077;-72
2023/10/06 11:59:48;;;;;;;13.43;4.15;;;;;;;;;;4964956;28;20059;-70
2023/10/06 12:02:15;;;;;;;16.25;5.38;;;;;;;;;;4969988;28;20030;-71
2023/10/06 12:04:41;;;;;;;20.95;5.13;;;;;;;;;;4970030;28;20030;-70
2023/10/06 12:07:10;;;;;;;28.60;4.32;;;;;;;;;;4963109;28;20030;-70
2023/10/06 12:09:38;;;;;;;14.00;4.70;;;;;;;;;;4943808;28;20027;-69
2023/10/06 12:12:05;;;;;;;19.10;4.68;;;;;;;;;;4966345;28;20062;-72
2023/10/06 12:14:33;;;;;;;19.00;4.57;;;;;;;;;;4970730;28;20034;-70
2023/10/06 12:16:59;;;;;;;17.13;4.30;;;;;;;;;;4950245;28;20113;-71
2023/10/06 12:19:25;;;;;;;15.65;4.70;;;;;;;;;;4969832;28;20019;-71
2023/10/06 12:21:52;;;;;;;17.30;4.30;;;;;;;;;;4949745;28;20035;-70
2023/10/06 12:24:22;;;;;;;16.95;4.05;;;;;;;;;;4968681;28;20027;-70
2023/10/06 12:26:48;;;;;;;19.33;4.75;;;;;;;;;;4968064;28;20041;-71
2023/10/06 12:29:16;;;;;;;21.83;4.78;;;;;;;;;;4950768;28;20043;-71
2023/10/06 12:31:46;;;;;;;22.17;4.68;;;;;;;;;;4961885;28;20051;-71
2023/10/06 12:34:15;;;;;;;21.42;4.32;;;;;;;;;;4957251;28;20071;-71
2023/10/06 12:36:47;;;;;;;17.17;4.60;;;;;;;;;;4968771;28;20381;-70
2023/10/06 12:39:16;;;;;;;26.40;4.93;;;;;;;;;;4944326;28;20050;-69
2023/10/06 12:41:46;;;;;;;16.38;4.10;;;;;;;;;;4966620;28;20404;-73
2023/10/06 12:44:16;;;;;;;21.50;5.50;;;;;;;;;;4968525;28;20022;-70
2023/10/06 12:46:42;;;;;;;19.93;4.97;;;;;;;;;;4968005;28;20578;-71
2023/10/06 12:49:08;;;;;;;13.30;4.47;;;;;;;;;;4969334;28;20066;-70
2023/10/06 12:51:35;;;;;;;12.98;3.75;;;;;;;;;;4966844;28;20046;-70
2023/10/06 12:54:01;;;;;;;20.30;4.22;;;;;;;;;;4944837;28;20042;-70
2023/10/06 12:56:31;;;;;;;15.75;4.07;;;;;;;;;;4965980;28;20038;-71
2023/10/06 12:58:57;;;;;;;16.63;4.53;;;;;;;;;;4968368;28;20057;-70
2023/10/06 13:01:25;;;;;;;16.38;3.67;;;;;;;;;;4962802;28;20063;-70
2023/10/06 13:03:53;;;;;;;15.10;3.90;;;;;;;;;;4963630;28;20026;-70
2023/10/06 13:06:22;;;;;;;17.08;4.20;;;;;;;;;;4963321;28;20039;-70
2023/10/06 13:08:50;;;;;;;14.93;4.05;;;;;;;;;;4966720;28;20042;-71
2023/10/06 13:11:18;;;;;;;17.50;3.95;;;;;;;;;;4966228;28;20042;-70
2023/10/06 13:13:49;;;;;;;17.20;3.65;;;;;;;;;;4953867;28;20385;-71
2023/10/06 13:16:20;;;;;;;16.38;3.95;;;;;;;;;;4964858;28;20407;-71
2023/10/06 13:18:48;;;;;;;17.35;4.47;;;;;;;;;;4967680;28;20117;-70
2023/10/06 13:21:14;;;;;;;20.55;4.68;;;;;;;;;;4967426;28;20030;-71
2023/10/06 13:23:42;;;;;;;19.52;3.95;;;;;;;;;;4963783;28;20035;-71
2023/10/06 13:26:11;;;;;;;14.80;4.47;;;;;;;;;;4945083;28;20534;-71
2023/10/06 13:28:40;;;;;;;18.08;3.60;;;;;;;;;;4965171;28;20042;-70
2023/10/06 13:31:07;;;;;;;18.35;5.30;;;;;;;;;;4966657;28;20039;-71
2023/10/06 13:33:34;;;;;;;18.25;4.72;;;;;;;;;;4965851;28;20139;-70
2023/10/06 13:36:00;;;;;;;23.17;4.78;;;;;;;;;;4964549;28;20073;-70
2023/10/06 13:38:26;;;;;;;13.38;3.92;;;;;;;;;;4966212;28;20315;-72
2023/10/06 13:40:53;;;;;;;12.35;3.83;;;;;;;;;;4961967;28;20070;-71
2023/10/06 13:43:20;;;;;;;26.42;5.00;;;;;;;;;;4967761;28;20030;-70
2023/10/06 13:45:47;;;;;;;19.30;4.35;;;;;;;;;;4968347;28;20054;-70
2023/10/06 13:48:15;;;;;;;17.92;3.92;;;;;;;;;;4964984;28;20715;-71
2023/10/06 13:50:42;;;;;;;19.23;4.13;;;;;;;;;;4969141;28;20047;-72
2023/10/06 13:53:11;;;;;;;18.30;3.95;;;;;;;;;;4971583;28;20042;-70
2023/10/06 13:55:37;;;;;;;20.80;4.32;;;;;;;;;;4972347;28;20492;-73
2023/10/06 13:58:04;;;;;;;18.17;4.30;;;;;;;;;;4946431;28;20040;-70
2023/10/06 14:00:40;;;;;;;15.00;4.28;;;;;;;;;;4966557;28;20054;-72
2023/10/06 14:03:07;;;;;;;14.30;4.22;;;;;;;;;;4969641;28;20027;-71
2023/10/06 14:05:34;;;;;;;17.42;4.30;;;;;;;;;;4949352;28;20054;-70
2023/10/06 14:08:03;;;;;;;14.55;4.32;;;;;;;;;;4964330;28;20029;-70
2023/10/06 14:10:35;;;;;;;15.18;4.00;;;;;;;;;;4962210;28;20037;-70
2023/10/06 14:13:05;;;;;;;13.50;3.88;;;;;;;;;;4960176;28;20030;-71
2023/10/06 14:15:41;;;;;;;18.02;4.60;;;;;;;;;;4968033;28;20093;-71
2023/10/06 14:18:08;;;;;;;16.80;4.28;;;;;;;;;;4966351;28;20058;-70
2023/10/06 14:20:35;;;;;;;12.15;3.72;;;;;;;;;;4966273;28;20042;-71
2023/10/06 14:23:02;;;;;;;14.80;3.80;;;;;;;;;;4958257;28;20170;-71
2023/10/06 14:25:29;;;;;;;15.02;4.20;;;;;;;;;;4960954;28;20027;-71
2023/10/06 14:27:56;;;;;;;19.27;4.20;;;;;;;;;;4960346;28;20080;-70
2023/10/06 14:30:25;;;;;;;18.15;3.83;;;;;;;;;;4964223;28;20062;-71
2023/10/06 14:33:14;;;;;;;13.95;3.58;;;;;;;;;;4970867;28;20113;-70
2023/10/06 14:46:39;;;;;;;19.85;4.53;;;;;;;;;;4963689;28;20189;-71
2023/10/06 14:49:13;;;;;;;13.23;3.75;;;;;;;;;;4971225;28;20042;-71
2023/10/06 14:51:39;;;;;;;15.70;3.58;;;;;;;;;;4968820;28;20069;-70
2023/10/06 14:54:10;;;;;;;12.40;4.03;;;;;;;;;;4969679;28;20447;-71
2023/10/06 14:56:36;;;;;;;;;;;;;;;;;;4954269;28;20051;-71
2023/10/06 14:59:08;;;;;;;14.32;3.70;;;;;;;;;;4971569;28;20016;-70
2023/10/06 15:01:35;;;;;;;21.83;4.10;;;;;;;;;;4967231;28;20034;-71
2023/10/06 15:04:01;;;;;;;16.63;3.72;;;;;;;;;;4953954;28;20038;-72
2023/10/06 15:06:28;;;;;;;22.90;4.35;;;;;;;;;;4964483;28;20385;-72